sensor_id;sensor_type;location;lat;lon;timestamp;P1;durP1;ratioP1;P2;durP2;ratioP2
7255;SDS011;3669;49.200;9.242;2023-08-08T00:00:30;2.20;;;2.00;;
7255;SDS011;3669;49.200;9.242;2023-08-08T00:02:57;2.30;;;2.08;;
7255;SDS011;3669;49.200;9.242;2023-08-08T00:05:24;2.10;;;1.90;;
7255;SDS011;3669;49.200;9.242;2023-08-08T00:07:52;2.20;;;2.00;;
7255;SDS011;3669;49.200;9.242;2023-08-08T00:10:19;2.17;;;1.95;;
7255;SDS011;3669;49.200;9.242;2023-08-08T00:12:46;2.15;;;1.88;;
7255;SDS011;3669;49.200;9.242;2023-08-08T00:15:13;2.33;;;2.13;;
7255;SDS011;3669;49.200;9.242;2023-08-08T00:17:40;2.17;;;1.90;;
7255;SDS011;3669;49.200;9.242;2023-08-08T00:20:08;2.00;;;1.80;;
7255;SDS011;3669;49.200;9.242;2023-08-08T00:22:35;2.55;;;2.35;;
7255;SDS011;3669;49.200;9.242;2023-08-08T00:25:02;2.20;;;2.00;;
7255;SDS011;3669;49.200;9.242;2023-08-08T00:27:29;2.58;;;2.00;;
7255;SDS011;3669;49.200;9.242;2023-08-08T00:29:57;2.00;;;1.80;;
7255;SDS011;3669;49.200;9.242;2023-08-08T00:32:24;2.63;;;2.10;;
7255;SDS011;3669;49.200;9.242;2023-08-08T00:34:51;2.00;;;1.90;;
7255;SDS011;3669;49.200;9.242;2023-08-08T00:37:18;2.90;;;1.80;;
7255;SDS011;3669;49.200;9.242;2023-08-08T00:39:45;2.30;;;2.10;;
7255;SDS011;3669;49.200;9.242;2023-08-08T00:42:12;1.92;;;1.80;;
7255;SDS011;3669;49.200;9.242;2023-08-08T00:44:40;2.13;;;2.00;;
7255;SDS011;3669;49.200;9.242;2023-08-08T00:47:08;2.08;;;1.92;;
7255;SDS011;3669;49.200;9.242;2023-08-08T00:49:35;1.80;;;1.70;;
7255;SDS011;3669;49.200;9.242;2023-08-08T00:52:03;2.05;;;1.80;;
7255;SDS011;3669;49.200;9.242;2023-08-08T00:54:30;1.95;;;1.83;;
7255;SDS011;3669;49.200;9.242;2023-08-08T00:56:57;1.67;;;1.58;;
7255;SDS011;3669;49.200;9.242;2023-08-08T00:59:24;2.17;;;2.00;;
7255;SDS011;3669;49.200;9.242;2023-08-08T01:01:52;2.33;;;2.13;;
7255;SDS011;3669;49.200;9.242;2023-08-08T01:04:19;16.08;;;15.27;;
7255;SDS011;3669;49.200;9.242;2023-08-08T01:07:01;42.20;;;39.95;;
7255;SDS011;3669;49.200;9.242;2023-08-08T01:09:35;3.03;;;2.83;;
7255;SDS011;3669;49.200;9.242;2023-08-08T01:12:05;2.42;;;2.10;;
7255;SDS011;3669;49.200;9.242;2023-08-08T01:14:32;4.07;;;3.88;;
7255;SDS011;3669;49.200;9.242;2023-08-08T01:17:01;21.67;;;20.38;;
7255;SDS011;3669;49.200;9.242;2023-08-08T01:19:29;27.83;;;26.42;;
7255;SDS011;3669;49.200;9.242;2023-08-08T01:21:59;13.05;;;12.43;;
7255;SDS011;3669;49.200;9.242;2023-08-08T01:24:28;11.82;;;11.10;;
7255;SDS011;3669;49.200;9.242;2023-08-08T01:26:55;1.73;;;1.63;;
7255;SDS011;3669;49.200;9.242;2023-08-08T01:29:23;1.98;;;1.80;;
7255;SDS011;3669;49.200;9.242;2023-08-08T01:31:50;2.47;;;2.00;;
7255;SDS011;3669;49.200;9.242;2023-08-08T01:34:17;2.75;;;2.00;;
7255;SDS011;3669;49.200;9.242;2023-08-08T01:36:54;2.03;;;1.83;;
7255;SDS011;3669;49.200;9.242;2023-08-08T01:39:26;2.90;;;2.10;;
7255;SDS011;3669;49.200;9.242;2023-08-08T01:41:54;2.10;;;1.90;;
7255;SDS011;3669;49.200;9.242;2023-08-08T01:44:21;1.88;;;1.77;;
7255;SDS011;3669;49.200;9.242;2023-08-08T01:46:52;3.45;;;1.92;;
7255;SDS011;3669;49.200;9.242;2023-08-08T01:49:20;2.33;;;2.00;;
7255;SDS011;3669;49.200;9.242;2023-08-08T01:51:47;2.13;;;1.92;;
7255;SDS011;3669;49.200;9.242;2023-08-08T01:54:16;2.22;;;2.00;;
7255;SDS011;3669;49.200;9.242;2023-08-08T01:56:43;2.10;;;1.70;;
7255;SDS011;3669;49.200;9.242;2023-08-08T01:59:10;1.80;;;1.70;;
7255;SDS011;3669;49.200;9.242;2023-08-08T02:01:38;4.32;;;1.80;;
7255;SDS011;3669;49.200;9.242;2023-08-08T02:04:05;2.42;;;1.83;;
7255;SDS011;3669;49.200;9.242;2023-08-08T02:06:32;1.85;;;1.75;;
7255;SDS011;3669;49.200;9.242;2023-08-08T02:08:59;2.15;;;1.95;;
7255;SDS011;3669;49.200;9.242;2023-08-08T02:11:26;2.10;;;1.90;;
7255;SDS011;3669;49.200;9.242;2023-08-08T02:13:53;2.00;;;1.80;;
7255;SDS011;3669;49.200;9.242;2023-08-08T02:16:20;2.05;;;1.95;;
7255;SDS011;3669;49.200;9.242;2023-08-08T02:18:47;1.77;;;1.67;;
7255;SDS011;3669;49.200;9.242;2023-08-08T02:21:14;2.10;;;1.95;;
7255;SDS011;3669;49.200;9.242;2023-08-08T02:23:41;1.95;;;1.85;;
7255;SDS011;3669;49.200;9.242;2023-08-08T02:26:08;2.15;;;1.80;;
7255;SDS011;3669;49.200;9.242;2023-08-08T02:28:35;1.77;;;1.67;;
7255;SDS011;3669;49.200;9.242;2023-08-08T02:31:02;2.00;;;1.90;;
7255;SDS011;3669;49.200;9.242;2023-08-08T02:33:30;2.70;;;1.75;;
7255;SDS011;3669;49.200;9.242;2023-08-08T02:35:57;1.98;;;1.88;;
7255;SDS011;3669;49.200;9.242;2023-08-08T02:38:24;2.20;;;2.00;;
7255;SDS011;3669;49.200;9.242;2023-08-08T02:40:51;2.17;;;2.00;;
7255;SDS011;3669;49.200;9.242;2023-08-08T02:43:18;1.75;;;1.65;;
7255;SDS011;3669;49.200;9.242;2023-08-08T02:45:45;1.73;;;1.63;;
7255;SDS011;3669;49.200;9.242;2023-08-08T02:48:13;1.80;;;1.70;;
7255;SDS011;3669;49.200;9.242;2023-08-08T02:50:40;2.00;;;1.90;;
7255;SDS011;3669;49.200;9.242;2023-08-08T02:53:07;2.10;;;1.90;;
7255;SDS011;3669;49.200;9.242;2023-08-08T02:55:35;2.08;;;1.70;;
7255;SDS011;3669;49.200;9.242;2023-08-08T02:58:03;1.92;;;1.80;;
7255;SDS011;3669;49.200;9.242;2023-08-08T03:00:30;2.78;;;1.83;;
7255;SDS011;3669;49.200;9.242;2023-08-08T03:02:57;1.90;;;1.80;;
7255;SDS011;3669;49.200;9.242;2023-08-08T03:05:24;1.80;;;1.70;;
7255;SDS011;3669;49.200;9.242;2023-08-08T03:07:51;1.98;;;1.70;;
7255;SDS011;3669;49.200;9.242;2023-08-08T03:10:18;2.00;;;1.90;;
7255;SDS011;3669;49.200;9.242;2023-08-08T03:12:46;1.92;;;1.83;;
7255;SDS011;3669;49.200;9.242;2023-08-08T03:15:14;3.25;;;2.10;;
7255;SDS011;3669;49.200;9.242;2023-08-08T03:17:41;2.30;;;2.10;;
7255;SDS011;3669;49.200;9.242;2023-08-08T03:20:08;2.00;;;1.90;;
7255;SDS011;3669;49.200;9.242;2023-08-08T03:22:36;2.35;;;2.15;;
7255;SDS011;3669;49.200;9.242;2023-08-08T03:25:03;2.15;;;1.85;;
7255;SDS011;3669;49.200;9.242;2023-08-08T03:27:30;2.22;;;2.03;;
7255;SDS011;3669;49.200;9.242;2023-08-08T03:29:57;15.95;;;14.95;;
7255;SDS011;3669;49.200;9.242;2023-08-08T03:32:25;23.95;;;22.63;;
7255;SDS011;3669;49.200;9.242;2023-08-08T03:34:52;15.15;;;14.43;;
7255;SDS011;3669;49.200;9.242;2023-08-08T03:37:19;25.48;;;24.10;;
7255;SDS011;3669;49.200;9.242;2023-08-08T03:39:46;18.52;;;17.60;;
7255;SDS011;3669;49.200;9.242;2023-08-08T03:42:12;5.82;;;5.50;;
7255;SDS011;3669;49.200;9.242;2023-08-08T03:44:39;2.25;;;2.05;;
7255;SDS011;3669;49.200;9.242;2023-08-08T03:47:06;2.17;;;1.75;;
7255;SDS011;3669;49.200;9.242;2023-08-08T03:49:33;2.00;;;1.90;;
7255;SDS011;3669;49.200;9.242;2023-08-08T03:52:00;1.90;;;1.80;;
7255;SDS011;3669;49.200;9.242;2023-08-08T03:54:27;2.00;;;1.80;;
7255;SDS011;3669;49.200;9.242;2023-08-08T03:56:55;2.10;;;1.73;;
7255;SDS011;3669;49.200;9.242;2023-08-08T03:59:22;1.98;;;1.88;;
7255;SDS011;3669;49.200;9.242;2023-08-08T04:01:49;2.53;;;1.83;;
7255;SDS011;3669;49.200;9.242;2023-08-08T04:04:16;1.85;;;1.75;;
7255;SDS011;3669;49.200;9.242;2023-08-08T04:06:43;1.98;;;1.75;;
7255;SDS011;3669;49.200;9.242;2023-08-08T04:09:10;2.20;;;1.70;;
7255;SDS011;3669;49.200;9.242;2023-08-08T04:11:39;2.40;;;1.90;;
7255;SDS011;3669;49.200;9.242;2023-08-08T04:14:06;1.88;;;1.77;;
7255;SDS011;3669;49.200;9.242;2023-08-08T04:16:33;2.20;;;2.00;;
7255;SDS011;3669;49.200;9.242;2023-08-08T04:19:00;1.90;;;1.80;;
7255;SDS011;3669;49.200;9.242;2023-08-08T04:21:29;1.85;;;1.75;;
7255;SDS011;3669;49.200;9.242;2023-08-08T04:23:58;1.80;;;1.70;;
7255;SDS011;3669;49.200;9.242;2023-08-08T04:26:25;2.25;;;2.05;;
7255;SDS011;3669;49.200;9.242;2023-08-08T04:28:52;1.80;;;1.70;;
7255;SDS011;3669;49.200;9.242;2023-08-08T04:31:21;2.15;;;1.95;;
7255;SDS011;3669;49.200;9.242;2023-08-08T04:33:51;2.20;;;2.00;;
7255;SDS011;3669;49.200;9.242;2023-08-08T04:36:24;2.03;;;1.90;;
7255;SDS011;3669;49.200;9.242;2023-08-08T04:38:51;1.98;;;1.80;;
7255;SDS011;3669;49.200;9.242;2023-08-08T04:41:18;2.15;;;1.92;;
7255;SDS011;3669;49.200;9.242;2023-08-08T04:43:45;2.65;;;1.90;;
7255;SDS011;3669;49.200;9.242;2023-08-08T04:46:12;2.22;;;2.03;;
7255;SDS011;3669;49.200;9.242;2023-08-08T04:48:39;2.00;;;1.85;;
7255;SDS011;3669;49.200;9.242;2023-08-08T04:51:07;2.00;;;1.90;;
7255;SDS011;3669;49.200;9.242;2023-08-08T04:53:35;2.35;;;2.15;;
7255;SDS011;3669;49.200;9.242;2023-08-08T04:56:02;2.20;;;2.00;;
7255;SDS011;3669;49.200;9.242;2023-08-08T04:58:29;2.30;;;2.10;;
7255;SDS011;3669;49.200;9.242;2023-08-08T05:00:57;2.05;;;1.92;;
7255;SDS011;3669;49.200;9.242;2023-08-08T05:03:24;2.13;;;1.92;;
7255;SDS011;3669;49.200;9.242;2023-08-08T05:05:51;2.92;;;2.08;;
7255;SDS011;3669;49.200;9.242;2023-08-08T05:08:19;2.47;;;1.95;;
7255;SDS011;3669;49.200;9.242;2023-08-08T05:10:46;2.50;;;2.10;;
7255;SDS011;3669;49.200;9.242;2023-08-08T05:13:13;2.60;;;2.35;;
7255;SDS011;3669;49.200;9.242;2023-08-08T05:15:40;2.33;;;2.10;;
7255;SDS011;3669;49.200;9.242;2023-08-08T05:18:07;2.25;;;2.05;;
7255;SDS011;3669;49.200;9.242;2023-08-08T05:20:47;2.35;;;2.15;;
7255;SDS011;3669;49.200;9.242;2023-08-08T05:23:14;2.10;;;1.90;;
7255;SDS011;3669;49.200;9.242;2023-08-08T05:25:41;2.60;;;2.20;;
7255;SDS011;3669;49.200;9.242;2023-08-08T05:28:08;2.67;;;1.92;;
7255;SDS011;3669;49.200;9.242;2023-08-08T05:30:36;2.38;;;2.17;;
7255;SDS011;3669;49.200;9.242;2023-08-08T05:33:03;2.50;;;2.30;;
7255;SDS011;3669;49.200;9.242;2023-08-08T05:35:30;2.40;;;2.20;;
7255;SDS011;3669;49.200;9.242;2023-08-08T05:37:57;2.33;;;2.13;;
7255;SDS011;3669;49.200;9.242;2023-08-08T05:40:24;2.67;;;2.13;;
7255;SDS011;3669;49.200;9.242;2023-08-08T05:42:51;12.95;;;12.23;;
7255;SDS011;3669;49.200;9.242;2023-08-08T05:45:19;22.40;;;21.33;;
7255;SDS011;3669;49.200;9.242;2023-08-08T05:47:48;30.50;;;28.70;;
7255;SDS011;3669;49.200;9.242;2023-08-08T05:50:15;25.85;;;24.58;;
7255;SDS011;3669;49.200;9.242;2023-08-08T05:52:42;24.13;;;22.95;;
7255;SDS011;3669;49.200;9.242;2023-08-08T05:55:09;24.02;;;22.60;;
7255;SDS011;3669;49.200;9.242;2023-08-08T05:57:36;15.05;;;14.30;;
7255;SDS011;3669;49.200;9.242;2023-08-08T06:00:03;6.45;;;6.10;;
7255;SDS011;3669;49.200;9.242;2023-08-08T06:02:30;4.35;;;3.50;;
7255;SDS011;3669;49.200;9.242;2023-08-08T06:05:03;3.10;;;2.20;;
7255;SDS011;3669;49.200;9.242;2023-08-08T06:07:31;2.90;;;2.15;;
7255;SDS011;3669;49.200;9.242;2023-08-08T06:09:58;2.30;;;2.10;;
7255;SDS011;3669;49.200;9.242;2023-08-08T06:12:26;2.30;;;2.10;;
7255;SDS011;3669;49.200;9.242;2023-08-08T06:14:53;1.95;;;1.80;;
7255;SDS011;3669;49.200;9.242;2023-08-08T06:17:20;2.72;;;2.20;;
7255;SDS011;3669;49.200;9.242;2023-08-08T06:19:49;2.45;;;2.10;;
7255;SDS011;3669;49.200;9.242;2023-08-08T06:22:16;2.85;;;2.08;;
7255;SDS011;3669;49.200;9.242;2023-08-08T06:24:43;2.78;;;2.58;;
7255;SDS011;3669;49.200;9.242;2023-08-08T06:27:12;2.53;;;2.30;;
7255;SDS011;3669;49.200;9.242;2023-08-08T06:29:39;2.47;;;1.98;;
7255;SDS011;3669;49.200;9.242;2023-08-08T06:32:06;3.58;;;1.92;;
7255;SDS011;3669;49.200;9.242;2023-08-08T06:34:33;12.32;;;11.63;;
7255;SDS011;3669;49.200;9.242;2023-08-08T06:37:01;4.25;;;2.20;;
7255;SDS011;3669;49.200;9.242;2023-08-08T06:39:28;2.28;;;2.03;;
7255;SDS011;3669;49.200;9.242;2023-08-08T06:41:57;4.10;;;2.03;;
7255;SDS011;3669;49.200;9.242;2023-08-08T06:44:24;4.35;;;2.42;;
7255;SDS011;3669;49.200;9.242;2023-08-08T06:46:51;3.15;;;2.10;;
7255;SDS011;3669;49.200;9.242;2023-08-08T06:49:18;2.03;;;1.80;;
7255;SDS011;3669;49.200;9.242;2023-08-08T06:51:45;2.10;;;1.90;;
7255;SDS011;3669;49.200;9.242;2023-08-08T06:54:12;2.10;;;1.88;;
7255;SDS011;3669;49.200;9.242;2023-08-08T06:56:40;3.05;;;2.00;;
7255;SDS011;3669;49.200;9.242;2023-08-08T06:59:07;2.03;;;1.83;;
7255;SDS011;3669;49.200;9.242;2023-08-08T07:01:34;2.10;;;1.70;;
7255;SDS011;3669;49.200;9.242;2023-08-08T07:04:01;2.53;;;1.95;;
7255;SDS011;3669;49.200;9.242;2023-08-08T07:06:29;2.13;;;1.92;;
7255;SDS011;3669;49.200;9.242;2023-08-08T07:08:56;2.08;;;1.88;;
7255;SDS011;3669;49.200;9.242;2023-08-08T07:11:23;2.20;;;1.92;;
7255;SDS011;3669;49.200;9.242;2023-08-08T07:13:50;2.03;;;1.80;;
7255;SDS011;3669;49.200;9.242;2023-08-08T07:16:17;2.72;;;1.90;;
7255;SDS011;3669;49.200;9.242;2023-08-08T07:18:44;2.22;;;2.00;;
7255;SDS011;3669;49.200;9.242;2023-08-08T07:21:12;2.42;;;1.95;;
7255;SDS011;3669;49.200;9.242;2023-08-08T07:23:39;2.35;;;1.92;;
7255;SDS011;3669;49.200;9.242;2023-08-08T07:26:06;2.83;;;1.80;;
7255;SDS011;3669;49.200;9.242;2023-08-08T07:28:33;3.13;;;2.25;;
7255;SDS011;3669;49.200;9.242;2023-08-08T07:31:00;11.98;;;11.15;;
7255;SDS011;3669;49.200;9.242;2023-08-08T07:33:27;1.92;;;1.70;;
7255;SDS011;3669;49.200;9.242;2023-08-08T07:35:54;2.30;;;1.83;;
7255;SDS011;3669;49.200;9.242;2023-08-08T07:38:21;2.00;;;1.80;;
7255;SDS011;3669;49.200;9.242;2023-08-08T07:40:48;3.17;;;2.10;;
7255;SDS011;3669;49.200;9.242;2023-08-08T07:43:15;2.97;;;1.90;;
7255;SDS011;3669;49.200;9.242;2023-08-08T07:45:43;3.45;;;3.15;;
7255;SDS011;3669;49.200;9.242;2023-08-08T07:48:09;20.02;;;18.83;;
7255;SDS011;3669;49.200;9.242;2023-08-08T07:50:37;23.00;;;21.83;;
7255;SDS011;3669;49.200;9.242;2023-08-08T07:53:04;16.38;;;15.50;;
7255;SDS011;3669;49.200;9.242;2023-08-08T07:55:31;28.02;;;26.48;;
7255;SDS011;3669;49.200;9.242;2023-08-08T07:57:58;21.45;;;20.40;;
7255;SDS011;3669;49.200;9.242;2023-08-08T08:00:25;17.38;;;16.40;;
7255;SDS011;3669;49.200;9.242;2023-08-08T08:02:52;7.47;;;6.97;;
7255;SDS011;3669;49.200;9.242;2023-08-08T08:05:19;3.00;;;1.80;;
7255;SDS011;3669;49.200;9.242;2023-08-08T08:07:46;2.33;;;1.80;;
7255;SDS011;3669;49.200;9.242;2023-08-08T08:10:13;2.00;;;1.80;;
7255;SDS011;3669;49.200;9.242;2023-08-08T08:12:40;2.25;;;1.88;;
7255;SDS011;3669;49.200;9.242;2023-08-08T08:15:08;4.55;;;2.10;;
7255;SDS011;3669;49.200;9.242;2023-08-08T08:17:35;2.63;;;1.85;;
7255;SDS011;3669;49.200;9.242;2023-08-08T08:20:02;2.45;;;1.60;;
7255;SDS011;3669;49.200;9.242;2023-08-08T08:22:31;2.45;;;1.90;;
7255;SDS011;3669;49.200;9.242;2023-08-08T08:24:59;2.35;;;2.00;;
7255;SDS011;3669;49.200;9.242;2023-08-08T08:27:27;2.13;;;1.90;;
7255;SDS011;3669;49.200;9.242;2023-08-08T08:29:54;3.95;;;1.73;;
7255;SDS011;3669;49.200;9.242;2023-08-08T08:32:21;2.63;;;1.80;;
7255;SDS011;3669;49.200;9.242;2023-08-08T08:34:48;2.22;;;1.83;;
7255;SDS011;3669;49.200;9.242;2023-08-08T08:37:15;1.52;;;1.42;;
7255;SDS011;3669;49.200;9.242;2023-08-08T08:39:42;3.15;;;1.80;;
7255;SDS011;3669;49.200;9.242;2023-08-08T08:42:09;2.42;;;2.03;;
7255;SDS011;3669;49.200;9.242;2023-08-08T08:44:41;3.15;;;1.70;;
7255;SDS011;3669;49.200;9.242;2023-08-08T08:47:09;2.53;;;2.17;;
7255;SDS011;3669;49.200;9.242;2023-08-08T08:49:39;1.70;;;1.50;;
7255;SDS011;3669;49.200;9.242;2023-08-08T08:52:11;1.75;;;1.65;;
7255;SDS011;3669;49.200;9.242;2023-08-08T08:54:39;2.88;;;1.88;;
7255;SDS011;3669;49.200;9.242;2023-08-08T08:57:06;2.22;;;1.77;;
7255;SDS011;3669;49.200;9.242;2023-08-08T08:59:34;2.13;;;1.92;;
7255;SDS011;3669;49.200;9.242;2023-08-08T09:02:01;2.50;;;1.90;;
7255;SDS011;3669;49.200;9.242;2023-08-08T09:04:29;2.20;;;1.67;;
7255;SDS011;3669;49.200;9.242;2023-08-08T09:06:56;1.90;;;1.80;;
7255;SDS011;3669;49.200;9.242;2023-08-08T09:09:23;1.80;;;1.70;;
7255;SDS011;3669;49.200;9.242;2023-08-08T09:11:52;3.65;;;1.98;;
7255;SDS011;3669;49.200;9.242;2023-08-08T09:14:23;2.60;;;1.50;;
7255;SDS011;3669;49.200;9.242;2023-08-08T09:16:51;2.03;;;1.80;;
7255;SDS011;3669;49.200;9.242;2023-08-08T09:19:23;2.55;;;1.70;;
7255;SDS011;3669;49.200;9.242;2023-08-08T09:21:51;3.25;;;2.38;;
7255;SDS011;3669;49.200;9.242;2023-08-08T09:24:19;2.08;;;1.70;;
7255;SDS011;3669;49.200;9.242;2023-08-08T09:26:46;2.33;;;2.05;;
7255;SDS011;3669;49.200;9.242;2023-08-08T09:29:14;1.73;;;1.50;;
7255;SDS011;3669;49.200;9.242;2023-08-08T09:31:41;2.90;;;1.65;;
7255;SDS011;3669;49.200;9.242;2023-08-08T09:34:08;2.55;;;2.00;;
7255;SDS011;3669;49.200;9.242;2023-08-08T09:36:37;2.80;;;1.70;;
7255;SDS011;3669;49.200;9.242;2023-08-08T09:39:05;2.55;;;1.98;;
7255;SDS011;3669;49.200;9.242;2023-08-08T09:41:33;2.22;;;1.92;;
7255;SDS011;3669;49.200;9.242;2023-08-08T09:44:00;2.20;;;1.70;;
7255;SDS011;3669;49.200;9.242;2023-08-08T09:46:30;2.30;;;1.88;;
7255;SDS011;3669;49.200;9.242;2023-08-08T09:48:58;2.15;;;1.70;;
7255;SDS011;3669;49.200;9.242;2023-08-08T09:51:25;3.15;;;2.05;;
7255;SDS011;3669;49.200;9.242;2023-08-08T09:53:53;2.72;;;1.70;;
7255;SDS011;3669;49.200;9.242;2023-08-08T09:56:20;1.83;;;1.60;;
7255;SDS011;3669;49.200;9.242;2023-08-08T09:58:47;2.78;;;1.70;;
7255;SDS011;3669;49.200;9.242;2023-08-08T10:01:14;1.73;;;1.63;;
7255;SDS011;3669;49.200;9.242;2023-08-08T10:03:41;1.90;;;1.67;;
7255;SDS011;3669;49.200;9.242;2023-08-08T10:06:09;5.85;;;5.45;;
7255;SDS011;3669;49.200;9.242;2023-08-08T10:08:35;19.30;;;18.25;;
7255;SDS011;3669;49.200;9.242;2023-08-08T10:11:03;32.15;;;30.23;;
7255;SDS011;3669;49.200;9.242;2023-08-08T10:13:32;38.03;;;36.17;;
7255;SDS011;3669;49.200;9.242;2023-08-08T10:16:03;15.43;;;14.63;;
7255;SDS011;3669;49.200;9.242;2023-08-08T10:18:31;28.42;;;27.00;;
7255;SDS011;3669;49.200;9.242;2023-08-08T10:20:57;2.97;;;2.50;;
7255;SDS011;3669;49.200;9.242;2023-08-08T10:23:24;1.70;;;1.60;;
7255;SDS011;3669;49.200;9.242;2023-08-08T10:25:51;2.65;;;1.80;;
7255;SDS011;3669;49.200;9.242;2023-08-08T10:28:19;2.05;;;1.70;;
7255;SDS011;3669;49.200;9.242;2023-08-08T10:30:47;2.63;;;2.00;;
7255;SDS011;3669;49.200;9.242;2023-08-08T10:33:18;2.15;;;1.80;;
7255;SDS011;3669;49.200;9.242;2023-08-08T10:35:59;1.70;;;1.60;;
7255;SDS011;3669;49.200;9.242;2023-08-08T10:38:38;3.20;;;1.90;;
7255;SDS011;3669;49.200;9.242;2023-08-08T10:41:08;1.90;;;1.60;;
7255;SDS011;3669;49.200;9.242;2023-08-08T10:43:36;1.83;;;1.63;;
7255;SDS011;3669;49.200;9.242;2023-08-08T10:46:03;2.72;;;1.83;;
7255;SDS011;3669;49.200;9.242;2023-08-08T10:48:31;2.75;;;1.73;;
7255;SDS011;3669;49.200;9.242;2023-08-08T10:50:59;3.03;;;1.90;;
7255;SDS011;3669;49.200;9.242;2023-08-08T10:53:28;3.35;;;1.63;;
7255;SDS011;3669;49.200;9.242;2023-08-08T10:56:03;2.30;;;1.73;;
7255;SDS011;3669;49.200;9.242;2023-08-08T10:58:37;2.17;;;1.70;;
7255;SDS011;3669;49.200;9.242;2023-08-08T11:01:05;2.33;;;1.75;;
7255;SDS011;3669;49.200;9.242;2023-08-08T11:03:34;3.35;;;1.85;;
7255;SDS011;3669;49.200;9.242;2023-08-08T11:06:02;2.03;;;1.83;;
7255;SDS011;3669;49.200;9.242;2023-08-08T11:08:32;2.28;;;1.88;;
7255;SDS011;3669;49.200;9.242;2023-08-08T11:11:00;2.65;;;1.88;;
7255;SDS011;3669;49.200;9.242;2023-08-08T11:13:28;2.13;;;1.90;;
7255;SDS011;3669;49.200;9.242;2023-08-08T11:15:55;2.10;;;1.90;;
7255;SDS011;3669;49.200;9.242;2023-08-08T11:18:22;3.95;;;1.85;;
7255;SDS011;3669;49.200;9.242;2023-08-08T11:20:49;3.10;;;2.13;;
7255;SDS011;3669;49.200;9.242;2023-08-08T11:23:16;2.25;;;1.70;;
7255;SDS011;3669;49.200;9.242;2023-08-08T11:25:44;2.78;;;1.80;;
7255;SDS011;3669;49.200;9.242;2023-08-08T11:28:12;1.90;;;1.70;;
7255;SDS011;3669;49.200;9.242;2023-08-08T11:30:41;2.90;;;1.95;;
7255;SDS011;3669;49.200;9.242;2023-08-08T11:33:09;3.25;;;2.17;;
7255;SDS011;3669;49.200;9.242;2023-08-08T11:35:37;1.90;;;1.70;;
7255;SDS011;3669;49.200;9.242;2023-08-08T11:38:04;1.80;;;1.70;;
7255;SDS011;3669;49.200;9.242;2023-08-08T11:40:31;1.92;;;1.70;;
7255;SDS011;3669;49.200;9.242;2023-08-08T11:42:59;2.40;;;1.90;;
7255;SDS011;3669;49.200;9.242;2023-08-08T11:45:26;2.00;;;1.80;;
7255;SDS011;3669;49.200;9.242;2023-08-08T11:47:54;11.73;;;11.02;;
7255;SDS011;3669;49.200;9.242;2023-08-08T11:50:22;29.75;;;28.35;;
7255;SDS011;3669;49.200;9.242;2023-08-08T11:52:51;32.58;;;31.08;;
7255;SDS011;3669;49.200;9.242;2023-08-08T11:55:30;18.42;;;17.27;;
7255;SDS011;3669;49.200;9.242;2023-08-08T11:57:57;19.73;;;18.67;;
7255;SDS011;3669;49.200;9.242;2023-08-08T12:00:28;30.02;;;28.58;;
7255;SDS011;3669;49.200;9.242;2023-08-08T12:03:00;27.50;;;26.02;;
7255;SDS011;3669;49.200;9.242;2023-08-08T12:05:29;35.90;;;34.25;;
7255;SDS011;3669;49.200;9.242;2023-08-08T12:07:58;29.27;;;27.98;;
7255;SDS011;3669;49.200;9.242;2023-08-08T12:10:25;20.73;;;19.67;;
7255;SDS011;3669;49.200;9.242;2023-08-08T12:12:58;11.25;;;10.65;;
7255;SDS011;3669;49.200;9.242;2023-08-08T12:15:29;5.53;;;5.13;;
7255;SDS011;3669;49.200;9.242;2023-08-08T12:17:57;6.93;;;6.50;;
7255;SDS011;3669;49.200;9.242;2023-08-08T12:20:26;4.50;;;3.88;;
7255;SDS011;3669;49.200;9.242;2023-08-08T12:22:54;1.92;;;1.65;;
7255;SDS011;3669;49.200;9.242;2023-08-08T12:25:21;2.22;;;1.70;;
7255;SDS011;3669;49.200;9.242;2023-08-08T12:27:49;1.65;;;1.55;;
7255;SDS011;3669;49.200;9.242;2023-08-08T12:30:16;2.13;;;1.60;;
7255;SDS011;3669;49.200;9.242;2023-08-08T12:32:43;1.63;;;1.40;;
7255;SDS011;3669;49.200;9.242;2023-08-08T12:35:10;2.08;;;1.73;;
7255;SDS011;3669;49.200;9.242;2023-08-08T12:37:37;2.03;;;1.60;;
7255;SDS011;3669;49.200;9.242;2023-08-08T12:40:04;4.65;;;1.98;;
7255;SDS011;3669;49.200;9.242;2023-08-08T12:42:32;3.15;;;1.98;;
7255;SDS011;3669;49.200;9.242;2023-08-08T12:44:59;2.38;;;1.65;;
7255;SDS011;3669;49.200;9.242;2023-08-08T12:47:26;1.80;;;1.30;;
7255;SDS011;3669;49.200;9.242;2023-08-08T12:49:55;1.95;;;1.73;;
7255;SDS011;3669;49.200;9.242;2023-08-08T12:52:22;1.75;;;1.65;;
7255;SDS011;3669;49.200;9.242;2023-08-08T12:54:49;2.72;;;1.80;;
7255;SDS011;3669;49.200;9.242;2023-08-08T12:57:16;1.50;;;1.40;;
7255;SDS011;3669;49.200;9.242;2023-08-08T12:59:43;1.75;;;1.60;;
7255;SDS011;3669;49.200;9.242;2023-08-08T13:02:10;2.00;;;1.73;;
7255;SDS011;3669;49.200;9.242;2023-08-08T13:04:37;1.45;;;1.35;;
7255;SDS011;3669;49.200;9.242;2023-08-08T13:07:04;1.63;;;1.48;;
7255;SDS011;3669;49.200;9.242;2023-08-08T13:09:32;2.80;;;1.77;;
7255;SDS011;3669;49.200;9.242;2023-08-08T13:12:00;2.10;;;1.50;;
7255;SDS011;3669;49.200;9.242;2023-08-08T13:14:27;1.90;;;1.70;;
7255;SDS011;3669;49.200;9.242;2023-08-08T13:16:54;1.98;;;1.63;;
7255;SDS011;3669;49.200;9.242;2023-08-08T13:19:21;2.88;;;1.50;;
7255;SDS011;3669;49.200;9.242;2023-08-08T13:21:53;2.08;;;1.58;;
7255;SDS011;3669;49.200;9.242;2023-08-08T13:24:21;4.43;;;1.80;;
7255;SDS011;3669;49.200;9.242;2023-08-08T13:26:51;2.75;;;1.55;;
7255;SDS011;3669;49.200;9.242;2023-08-08T13:29:18;1.80;;;1.70;;
7255;SDS011;3669;49.200;9.242;2023-08-08T13:31:45;4.07;;;1.80;;
7255;SDS011;3669;49.200;9.242;2023-08-08T13:34:12;10.02;;;2.35;;
7255;SDS011;3669;49.200;9.242;2023-08-08T13:36:40;2.47;;;1.80;;
7255;SDS011;3669;49.200;9.242;2023-08-08T13:39:07;2.15;;;1.60;;
7255;SDS011;3669;49.200;9.242;2023-08-08T13:41:35;2.55;;;1.52;;
7255;SDS011;3669;49.200;9.242;2023-08-08T13:44:02;2.30;;;1.60;;
7255;SDS011;3669;49.200;9.242;2023-08-08T13:46:29;2.30;;;1.70;;
7255;SDS011;3669;49.200;9.242;2023-08-08T13:48:56;3.63;;;1.80;;
7255;SDS011;3669;49.200;9.242;2023-08-08T13:51:24;2.97;;;1.60;;
7255;SDS011;3669;49.200;9.242;2023-08-08T13:53:51;2.22;;;1.60;;
7255;SDS011;3669;49.200;9.242;2023-08-08T13:56:18;2.33;;;1.60;;
7255;SDS011;3669;49.200;9.242;2023-08-08T13:58:45;2.08;;;1.30;;
7255;SDS011;3669;49.200;9.242;2023-08-08T14:01:12;1.77;;;1.63;;
7255;SDS011;3669;49.200;9.242;2023-08-08T14:03:40;1.88;;;1.63;;
7255;SDS011;3669;49.200;9.242;2023-08-08T14:06:07;1.98;;;1.73;;
7255;SDS011;3669;49.200;9.242;2023-08-08T14:08:34;1.83;;;1.55;;
7255;SDS011;3669;49.200;9.242;2023-08-08T14:11:01;1.92;;;1.60;;
7255;SDS011;3669;49.200;9.242;2023-08-08T14:13:28;6.22;;;5.78;;
7255;SDS011;3669;49.200;9.242;2023-08-08T14:15:55;14.80;;;14.07;;
7255;SDS011;3669;49.200;9.242;2023-08-08T14:18:22;21.63;;;20.67;;
7255;SDS011;3669;49.200;9.242;2023-08-08T14:20:49;21.25;;;20.25;;
7255;SDS011;3669;49.200;9.242;2023-08-08T14:23:16;26.33;;;25.10;;
7255;SDS011;3669;49.200;9.242;2023-08-08T14:25:43;18.25;;;17.23;;
7255;SDS011;3669;49.200;9.242;2023-08-08T14:28:10;10.13;;;9.65;;
7255;SDS011;3669;49.200;9.242;2023-08-08T14:30:37;4.65;;;4.32;;
7255;SDS011;3669;49.200;9.242;2023-08-08T14:33:04;1.45;;;1.35;;
7255;SDS011;3669;49.200;9.242;2023-08-08T14:35:31;1.60;;;1.50;;
7255;SDS011;3669;49.200;9.242;2023-08-08T14:37:58;2.67;;;1.60;;
7255;SDS011;3669;49.200;9.242;2023-08-08T14:40:26;1.40;;;1.30;;
7255;SDS011;3669;49.200;9.242;2023-08-08T14:42:53;1.88;;;1.65;;
7255;SDS011;3669;49.200;9.242;2023-08-08T14:45:20;1.80;;;1.50;;
7255;SDS011;3669;49.200;9.242;2023-08-08T14:47:47;1.55;;;1.30;;
7255;SDS011;3669;49.200;9.242;2023-08-08T14:50:15;1.52;;;1.20;;
7255;SDS011;3669;49.200;9.242;2023-08-08T14:52:42;1.60;;;1.48;;
7255;SDS011;3669;49.200;9.242;2023-08-08T14:55:09;1.45;;;1.30;;
7255;SDS011;3669;49.200;9.242;2023-08-08T14:57:36;2.08;;;1.40;;
7255;SDS011;3669;49.200;9.242;2023-08-08T15:00:04;1.45;;;1.35;;
7255;SDS011;3669;49.200;9.242;2023-08-08T15:02:33;1.92;;;1.50;;
7255;SDS011;3669;49.200;9.242;2023-08-08T15:05:01;1.30;;;1.15;;
7255;SDS011;3669;49.200;9.242;2023-08-08T15:07:28;1.83;;;1.30;;
7255;SDS011;3669;49.200;9.242;2023-08-08T15:09:55;1.60;;;1.45;;
7255;SDS011;3669;49.200;9.242;2023-08-08T15:12:22;1.83;;;1.30;;
7255;SDS011;3669;49.200;9.242;2023-08-08T15:14:49;1.67;;;1.58;;